createdAt,value
2023-11-18T07:44:08.794Z,53.79
2023-11-18T07:46:44.688Z,54.14
2023-11-18T07:49:12.625Z,54.34
2023-11-18T07:51:41.696Z,54.59
2023-11-18T07:54:09.329Z,54.00
2023-11-18T07:56:43.448Z,53.27
2023-11-18T07:59:10.420Z,53.48
2023-11-18T08:01:46.015Z,53.01
2023-11-18T08:04:12.827Z,52.36
2023-11-18T08:06:39.556Z,52.92
2023-11-18T08:09:06.365Z,54.18
2023-11-18T08:11:33.165Z,53.34
2023-11-18T08:13:59.973Z,53.54
2023-11-18T17:27:08.663Z,52.64
2023-11-18T17:29:35.716Z,52.42
2023-11-18T17:32:02.809Z,52.73
2023-11-18T17:34:29.836Z,52.19
2023-11-18T17:36:56.833Z,52.21
2023-11-18T17:39:23.799Z,52.44
2023-11-18T17:41:51.170Z,52.44
2023-11-18T17:44:18.157Z,51.85
2023-11-18T17:46:45.130Z,52.38
2023-11-18T17:49:12.291Z,51.87
2023-11-18T17:51:39.666Z,51.57
2023-11-18T17:54:06.625Z,52.15
2023-11-18T17:56:33.685Z,52.07
2023-11-18T17:59:00.727Z,52.24
2023-11-18T18:01:27.862Z,52.19
2023-11-18T18:03:54.857Z,52.96
2023-11-18T18:06:21.857Z,52.54
2023-11-18T18:08:48.893Z,52.62
2023-11-18T18:11:16.042Z,53.07
2023-11-18T18:13:43.033Z,52.63
2023-11-18T18:16:10.077Z,51.99
2023-11-18T18:18:37.144Z,51.40
2023-11-18T18:21:06.283Z,51.66
2023-11-18T18:23:33.173Z,50.00
2023-11-18T18:26:00.248Z,49.85
2023-11-18T18:28:27.237Z,49.44
2023-11-18T18:30:54.094Z,50.26
2023-11-18T18:33:20.987Z,49.68
2023-11-18T18:35:47.977Z,49.44
2023-11-18T18:38:15.028Z,49.70
2023-11-18T18:40:42.036Z,50.34
2023-11-18T18:43:09.530Z,50.34
2023-11-18T18:45:43.063Z,50.01
2023-11-18T19:28:39.978Z,52.47
2023-11-18T19:31:06.903Z,51.69
2023-11-18T19:33:33.865Z,52.22
2023-11-18T19:36:00.867Z,52.32
2023-11-18T19:38:27.728Z,52.09
2023-11-18T19:40:54.619Z,52.45
2023-11-18T19:43:21.715Z,52.44
2023-11-18T19:45:48.641Z,52.58
2023-11-18T19:48:15.584Z,51.96
2023-11-18T19:50:42.786Z,51.81
2023-11-18T19:53:09.829Z,51.62
2023-11-18T19:55:36.761Z,51.32
2023-11-18T19:58:03.739Z,50.67
2023-11-18T20:00:30.660Z,51.30
2023-11-18T20:02:57.859Z,50.88
2023-11-18T20:05:25.017Z,51.10
2023-11-18T20:07:52.203Z,51.49
2023-11-18T20:10:19.115Z,52.38
2023-11-18T20:12:46.099Z,51.82
2023-11-18T20:15:13.407Z,51.91
2023-11-18T20:17:40.491Z,52.35
2023-11-18T20:20:07.509Z,52.03
2023-11-18T20:22:34.463Z,52.18
2023-11-18T20:25:01.420Z,51.61
2023-11-18T20:27:28.351Z,51.61
2023-11-18T20:29:55.235Z,51.86
2023-11-18T20:32:22.225Z,52.54
2023-11-18T20:34:49.208Z,52.18
2023-11-18T20:37:16.138Z,52.56
2023-11-18T20:39:42.994Z,52.27
2023-11-18T20:42:10.073Z,52.36
2023-11-18T20:44:38.746Z,51.87
2023-11-18T20:47:06.063Z,52.10
2023-11-18T20:49:33.019Z,51.37
2023-11-18T20:51:59.951Z,51.62
2023-11-18T20:54:26.872Z,51.71
2023-11-18T20:56:53.779Z,51.42
2023-11-18T20:59:20.819Z,51.23
2023-11-18T21:01:47.745Z,51.50
2023-11-18T21:04:18.687Z,51.47
2023-11-18T21:06:53.507Z,50.87
2023-11-18T21:09:24.566Z,50.98
2023-11-18T21:12:16.388Z,50.41
2023-11-18T21:14:47.448Z,51.24
2023-11-18T21:17:44.168Z,50.74
2023-11-18T21:20:11.128Z,51.01
2023-11-18T21:22:37.941Z,50.97
2023-11-18T21:25:04.668Z,50.56
2023-11-18T21:27:31.470Z,50.69
2023-11-18T21:29:58.183Z,50.84
2023-11-18T21:32:24.973Z,51.17
2023-11-18T21:34:51.850Z,51.02
2023-11-18T21:37:21.684Z,50.85
2023-11-18T21:39:48.477Z,50.45
2023-11-18T21:42:15.424Z,50.92
2023-11-18T21:44:42.275Z,51.46
2023-11-18T21:49:51.834Z,51.33
2023-11-18T21:52:20.205Z,51.15
2023-11-18T21:54:47.001Z,50.77
2023-11-18T21:57:13.938Z,51.27
2023-11-18T21:59:40.742Z,50.89
